createdAt,value
2018-06-20T00:00:43.699Z,100.0
2018-06-20T00:01:44.421Z,100.0
2018-06-20T00:02:45.146Z,100.0
2018-06-20T00:03:45.870Z,100.0
2018-06-20T00:04:46.628Z,100.0
2018-06-20T00:05:47.340Z,100.0
2018-06-20T00:06:48.065Z,100.0
2018-06-20T00:07:48.845Z,100.0
2018-06-20T00:08:49.825Z,100.0
2018-06-20T00:09:50.551Z,100.0
2018-06-20T00:10:51.278Z,100.0
2018-06-20T00:11:51.999Z,100.0
2018-06-20T00:12:52.744Z,100.0
2018-06-20T00:13:53.464Z,100.0
2018-06-20T00:14:54.186Z,100.0
2018-06-20T00:15:54.906Z,100.0
2018-06-20T00:16:55.876Z,100.0
2018-06-20T00:17:56.604Z,100.0
2018-06-20T00:18:57.331Z,100.0
2018-06-20T00:19:58.059Z,100.0
2018-06-20T00:20:58.790Z,100.0
2018-06-20T00:21:59.514Z,100.0
2018-06-20T00:23:00.245Z,100.0
2018-06-20T00:24:00.970Z,100.0
2018-06-20T00:25:01.697Z,100.0
2018-06-20T00:26:02.483Z,100.0
2018-06-20T00:27:03.214Z,100.0
2018-06-20T00:28:03.942Z,100.0
2018-06-20T00:29:04.670Z,100.0
2018-06-20T00:30:05.401Z,100.0
2018-06-20T00:31:06.124Z,100.0
2018-06-20T00:32:06.859Z,100.0
2018-06-20T00:33:07.592Z,100.0
2018-06-20T00:34:08.322Z,100.0
2018-06-20T00:35:09.089Z,100.0
2018-06-20T00:36:10.076Z,100.0
2018-06-20T00:37:10.856Z,100.0
2018-06-20T00:38:11.585Z,100.0
2018-06-20T00:39:12.305Z,100.0
2018-06-20T00:40:13.040Z,100.0
2018-06-20T00:41:13.796Z,100.0
2018-06-20T00:42:14.522Z,100.0
2018-06-20T00:43:15.260Z,100.0
2018-06-20T00:44:15.999Z,100.0
2018-06-20T00:45:16.981Z,100.0
2018-06-20T00:46:17.718Z,100.0
2018-06-20T00:47:18.438Z,100.0
2018-06-20T00:48:19.159Z,100.0
2018-06-20T00:49:19.889Z,100.0
2018-06-20T00:50:20.609Z,100.0
2018-06-20T00:51:21.340Z,100.0
2018-06-20T00:52:22.074Z,100.0
2018-06-20T00:53:22.798Z,100.0
2018-06-20T00:54:23.872Z,100.0
2018-06-20T00:55:24.595Z,100.0
2018-06-20T00:56:25.327Z,100.0
2018-06-20T00:57:26.056Z,100.0
2018-06-20T00:58:26.791Z,100.0
2018-06-20T00:59:27.616Z,100.0
2018-06-20T01:00:28.590Z,100.0
2018-06-20T01:01:29.321Z,100.0
2018-06-20T01:02:30.051Z,100.0
2018-06-20T01:03:30.786Z,100.0
2018-06-20T01:04:31.509Z,100.0
2018-06-20T01:05:32.243Z,100.0
2018-06-20T01:06:32.975Z,100.0
2018-06-20T01:07:33.703Z,100.0
2018-06-20T01:08:34.430Z,100.0
2018-06-20T01:09:35.166Z,100.0
2018-06-20T01:10:35.889Z,100.0
2018-06-20T01:11:36.633Z,100.0
2018-06-20T01:12:37.360Z,100.0
2018-06-20T01:13:38.090Z,100.0
2018-06-20T01:14:38.818Z,100.0
2018-06-20T01:15:39.788Z,100.0
2018-06-20T01:16:40.515Z,100.0
2018-06-20T01:17:41.257Z,100.0
2018-06-20T01:18:41.992Z,100.0
2018-06-20T01:19:42.727Z,100.0
2018-06-20T01:20:43.454Z,100.0
2018-06-20T01:21:44.182Z,100.0
2018-06-20T01:22:44.904Z,100.0
2018-06-20T01:23:45.630Z,100.0
2018-06-20T01:24:46.367Z,100.0
2018-06-20T01:25:47.096Z,100.0
2018-06-20T01:26:47.826Z,100.0
2018-06-20T01:27:48.546Z,100.0
2018-06-20T01:28:49.278Z,100.0
2018-06-20T01:29:50.005Z,100.0
2018-06-20T01:30:50.737Z,100.0
2018-06-20T01:31:51.454Z,100.0
2018-06-20T01:32:52.189Z,100.0
2018-06-20T01:33:52.910Z,100.0
2018-06-20T01:34:53.639Z,100.0
2018-06-20T01:35:54.363Z,100.0
2018-06-20T01:36:55.191Z,100.0
2018-06-20T01:37:55.918Z,100.0
2018-06-20T01:38:56.643Z,100.0
2018-06-20T01:39:57.387Z,100.0
2018-06-20T01:40:58.108Z,100.0
2018-06-20T01:41:58.841Z,100.0
2018-06-20T01:42:59.567Z,100.0
2018-06-20T01:44:00.296Z,100.0
2018-06-20T01:45:01.022Z,100.0
2018-06-20T01:46:01.755Z,100.0
2018-06-20T01:47:02.536Z,100.0
2018-06-20T01:48:03.519Z,100.0
2018-06-20T01:49:04.492Z,100.0
2018-06-20T01:50:05.218Z,100.0
2018-06-20T01:51:05.945Z,100.0
2018-06-20T01:52:06.671Z,100.0
2018-06-20T01:53:07.404Z,100.0
2018-06-20T01:54:08.267Z,100.0
2018-06-20T01:55:09.001Z,100.0
2018-06-20T01:56:09.735Z,100.0
2018-06-20T01:57:10.465Z,100.0
2018-06-20T01:58:11.202Z,100.0
2018-06-20T01:59:11.927Z,100.0
2018-06-20T02:00:12.651Z,100.0
2018-06-20T02:01:13.377Z,100.0
2018-06-20T02:02:14.111Z,100.0
2018-06-20T02:03:14.893Z,100.0
2018-06-20T02:04:15.626Z,100.0
2018-06-20T02:05:16.601Z,100.0
2018-06-20T02:06:17.324Z,100.0
2018-06-20T02:07:18.046Z,100.0
2018-06-20T02:08:18.775Z,100.0
2018-06-20T02:09:19.499Z,100.0
2018-06-20T02:10:20.228Z,100.0
2018-06-20T02:11:20.973Z,100.0
2018-06-20T02:12:21.696Z,100.0
2018-06-20T02:13:22.420Z,100.0
2018-06-20T02:14:23.146Z,100.0
2018-06-20T02:15:24.115Z,100.0
2018-06-20T02:16:24.853Z,100.0
2018-06-20T02:17:25.580Z,100.0
2018-06-20T02:18:26.647Z,100.0
2018-06-20T02:19:27.394Z,100.0
2018-06-20T02:20:28.130Z,100.0
2018-06-20T02:21:29.109Z,100.0
2018-06-20T02:22:29.830Z,100.0
2018-06-20T02:23:30.558Z,100.0
2018-06-20T02:24:31.530Z,100.0
2018-06-20T02:25:32.259Z,100.0
2018-06-20T02:26:32.999Z,100.0
2018-06-20T02:27:33.733Z,100.0
2018-06-20T02:28:34.479Z,100.0
2018-06-20T02:29:35.204Z,100.0
2018-06-20T02:30:35.918Z,100.0
2018-06-20T02:31:36.654Z,100.0
2018-06-20T02:32:37.374Z,100.0
2018-06-20T02:33:38.105Z,100.0
2018-06-20T02:34:38.839Z,100.0
2018-06-20T02:35:39.575Z,100.0
2018-06-20T02:36:40.346Z,100.0
2018-06-20T02:37:41.048Z,100.0
2018-06-20T02:38:41.762Z,100.0
2018-06-20T02:39:42.486Z,100.0
2018-06-20T02:40:43.280Z,100.0
2018-06-20T02:41:44.004Z,100.0
2018-06-20T02:42:44.738Z,100.0
2018-06-20T02:43:45.471Z,100.0
2018-06-20T02:44:46.201Z,100.0
2018-06-20T02:45:46.933Z,100.0
2018-06-20T02:46:47.718Z,100.0
2018-06-20T02:47:48.377Z,100.0
2018-06-20T02:48:49.100Z,100.0
2018-06-20T02:49:49.840Z,100.0
2018-06-20T02:50:50.568Z,100.0
2018-06-20T02:51:51.563Z,100.0
2018-06-20T02:52:52.505Z,100.0
2018-06-20T02:53:53.024Z,100.0
2018-06-20T02:54:53.766Z,100.0
2018-06-20T02:55:54.489Z,100.0
2018-06-20T02:56:55.467Z,100.0
2018-06-20T02:57:56.195Z,100.0
2018-06-20T02:58:56.926Z,100.0
2018-06-20T02:59:57.650Z,100.0
2018-06-20T03:00:58.383Z,100.0
2018-06-20T03:01:59.120Z,100.0
2018-06-20T03:02:59.849Z,100.0
2018-06-20T03:04:00.631Z,100.0
2018-06-20T03:05:01.373Z,100.0
2018-06-20T03:06:02.099Z,100.0
2018-06-20T03:07:02.840Z,100.0
2018-06-20T03:08:03.566Z,100.0
2018-06-20T03:09:04.297Z,100.0
2018-06-20T03:10:05.028Z,100.0
2018-06-20T03:11:05.760Z,100.0
2018-06-20T03:12:06.485Z,100.0
2018-06-20T03:13:07.243Z,100.0
2018-06-20T03:14:08.111Z,100.0
2018-06-20T03:15:08.846Z,100.0
2018-06-20T03:16:09.586Z,100.0
2018-06-20T03:17:10.322Z,100.0
2018-06-20T03:18:11.062Z,100.0
2018-06-20T03:19:11.787Z,100.0
2018-06-20T03:20:12.516Z,100.0
2018-06-20T03:21:13.249Z,100.0
2018-06-20T03:22:13.970Z,100.0
2018-06-20T03:23:14.697Z,100.0
2018-06-20T03:24:15.688Z,100.0
2018-06-20T03:25:16.480Z,100.0
2018-06-20T03:26:17.202Z,100.0
2018-06-20T03:27:17.943Z,100.0
2018-06-20T03:28:18.656Z,100.0
2018-06-20T03:29:19.391Z,100.0
2018-06-20T03:30:20.190Z,100.0
2018-06-20T03:31:20.909Z,100.0
2018-06-20T03:32:21.650Z,100.0
2018-06-20T03:33:22.390Z,100.0
2018-06-20T03:34:23.117Z,100.0
2018-06-20T03:35:23.901Z,100.0
2018-06-20T03:36:24.617Z,100.0
2018-06-20T03:37:25.354Z,100.0
2018-06-20T03:38:26.085Z,100.0
2018-06-20T03:39:26.819Z,100.0
2018-06-20T03:40:27.555Z,100.0
2018-06-20T03:41:28.289Z,100.0
2018-06-20T03:42:29.018Z,100.0
2018-06-20T03:43:29.757Z,100.0
2018-06-20T03:44:30.493Z,100.0
2018-06-20T03:45:31.271Z,100.0
2018-06-20T03:46:32.001Z,100.0
2018-06-20T03:47:32.983Z,100.0
2018-06-20T03:48:33.962Z,100.0
2018-06-20T03:49:34.696Z,100.0
2018-06-20T03:50:35.432Z,100.0
2018-06-20T03:51:36.404Z,100.0
2018-06-20T03:52:37.133Z,100.0
2018-06-20T03:53:37.868Z,100.0
2018-06-20T03:54:38.606Z,100.0
2018-06-20T03:55:39.344Z,100.0
2018-06-20T03:56:40.069Z,100.0
2018-06-20T03:57:41.098Z,100.0
2018-06-20T03:58:42.079Z,100.0
2018-06-20T03:59:42.815Z,100.0
2018-06-20T04:00:43.558Z,100.0
2018-06-20T04:01:44.287Z,100.0
2018-06-20T04:02:45.163Z,100.0
2018-06-20T04:03:45.891Z,100.0
2018-06-20T04:04:46.632Z,100.0
2018-06-20T04:05:47.367Z,100.0
2018-06-20T04:06:48.106Z,100.0
2018-06-20T04:07:48.895Z,100.0
2018-06-20T04:08:49.623Z,100.0
2018-06-20T04:09:50.358Z,100.0
2018-06-20T04:10:51.108Z,100.0
2018-06-20T04:11:51.840Z,100.0
2018-06-20T04:12:52.563Z,100.0
2018-06-20T04:13:53.302Z,100.0
2018-06-20T04:14:54.041Z,100.0
2018-06-20T04:15:55.074Z,100.0
2018-06-20T04:16:55.961Z,100.0
2018-06-20T04:17:56.697Z,100.0
2018-06-20T04:18:57.427Z,100.0
2018-06-20T04:19:58.149Z,100.0
2018-06-20T04:20:58.883Z,100.0
2018-06-20T04:21:59.722Z,100.0
2018-06-20T04:23:00.451Z,100.0
2018-06-20T04:24:01.183Z,100.0
2018-06-20T04:25:01.925Z,100.0
2018-06-20T04:26:02.637Z,100.0
2018-06-20T04:27:03.374Z,100.0
2018-06-20T04:28:04.164Z,100.0
2018-06-20T04:29:04.892Z,100.0
2018-06-20T04:30:05.678Z,100.0
2018-06-20T04:31:06.411Z,100.0
2018-06-20T04:32:07.143Z,100.0
2018-06-20T04:33:07.875Z,100.0
2018-06-20T04:34:08.606Z,100.0
2018-06-20T04:35:09.350Z,100.0
2018-06-20T04:36:10.336Z,100.0
2018-06-20T04:37:11.069Z,100.0
2018-06-20T04:38:11.804Z,100.0
2018-06-20T04:39:12.544Z,100.0
2018-06-20T04:40:13.322Z,100.0
2018-06-20T04:41:14.052Z,100.0
2018-06-20T04:42:14.802Z,100.0
2018-06-20T04:43:15.544Z,100.0
2018-06-20T04:44:16.284Z,100.0
2018-06-20T04:45:17.004Z,100.0
2018-06-20T04:46:17.752Z,100.0
2018-06-20T04:47:18.471Z,100.0
2018-06-20T04:48:19.207Z,100.0
2018-06-20T04:49:19.943Z,100.0
2018-06-20T04:50:20.728Z,100.0
2018-06-20T04:51:21.452Z,100.0
2018-06-20T04:52:22.214Z,100.0
2018-06-20T04:53:22.932Z,100.0
2018-06-20T04:54:23.657Z,100.0
2018-06-20T04:55:24.533Z,100.0
2018-06-20T04:56:25.517Z,100.0
2018-06-20T04:57:26.498Z,100.0
2018-06-20T04:58:27.238Z,100.0
2018-06-20T04:59:27.972Z,100.0
2018-06-20T05:00:28.857Z,100.0
2018-06-20T05:01:29.597Z,100.0
2018-06-20T05:02:30.328Z,100.0
2018-06-20T05:03:31.062Z,100.0
2018-06-20T05:04:31.852Z,100.0
2018-06-20T05:05:32.634Z,100.0
2018-06-20T05:06:33.378Z,100.0
2018-06-20T05:07:34.116Z,100.0
2018-06-20T05:08:34.842Z,100.0
2018-06-20T05:09:35.563Z,100.0
2018-06-20T05:10:36.351Z,100.0
2018-06-20T05:11:37.087Z,100.0
2018-06-20T05:12:37.826Z,100.0
2018-06-20T05:13:38.567Z,100.0
2018-06-20T05:15:54.887Z,100.0
2018-06-20T05:16:55.880Z,100.0
2018-06-20T05:19:12.139Z,100.0
2018-06-20T05:20:12.878Z,100.0
2018-06-20T05:21:13.888Z,100.0
2018-06-20T05:22:14.624Z,100.0
2018-06-20T05:23:15.357Z,100.0
2018-06-20T05:24:16.346Z,100.0
2018-06-20T05:25:17.072Z,100.0
2018-06-20T05:27:33.390Z,100.0
2018-06-20T05:28:34.132Z,100.0
2018-06-20T05:29:34.875Z,100.0
2018-06-20T05:30:36.072Z,100.0
2018-06-20T05:31:37.274Z,100.0
2018-06-20T05:32:38.057Z,100.0
2018-06-20T05:33:38.861Z,100.0
2018-06-20T05:34:40.285Z,100.0
2018-06-20T05:35:41.047Z,100.0
2018-06-20T05:36:41.859Z,100.0
2018-06-20T05:37:42.679Z,100.0
2018-06-20T05:39:26.146Z,100.0
2018-06-20T05:40:26.952Z,100.0
2018-06-20T05:41:27.690Z,100.0
2018-06-20T05:43:30.277Z,100.0
2018-06-20T05:44:31.471Z,100.0
2018-06-20T05:45:32.340Z,100.0
2018-06-20T05:46:33.073Z,100.0
2018-06-20T05:47:34.132Z,100.0
2018-06-20T05:48:34.951Z,100.0
2018-06-20T05:49:35.688Z,100.0
2018-06-20T05:50:36.433Z,100.0
2018-06-20T05:51:37.220Z,100.0
2018-06-20T05:52:38.010Z,100.0
2018-06-20T05:53:39.006Z,100.0
2018-06-20T05:54:39.789Z,100.0
2018-06-20T05:55:40.696Z,100.0
2018-06-20T05:56:41.426Z,100.0
2018-06-20T05:57:42.151Z,100.0
2018-06-20T05:58:42.880Z,100.0
2018-06-20T05:59:43.619Z,100.0
2018-06-20T06:00:44.516Z,100.0
2018-06-20T06:01:45.247Z,100.0
2018-06-20T06:02:46.021Z,100.0
2018-06-20T06:03:46.744Z,100.0
2018-06-20T06:04:47.479Z,100.0
2018-06-20T06:05:48.220Z,100.0
2018-06-20T06:06:48.964Z,100.0
2018-06-20T06:07:49.690Z,100.0
2018-06-20T06:08:50.420Z,100.0
2018-06-20T06:09:51.155Z,100.0
2018-06-20T06:10:51.904Z,100.0
2018-06-20T06:11:52.636Z,100.0
2018-06-20T06:12:53.430Z,100.0
2018-06-20T06:13:54.162Z,100.0
2018-06-20T06:14:55.154Z,100.0
2018-06-20T06:15:55.902Z,100.0
2018-06-20T06:16:56.635Z,100.0
2018-06-20T06:17:57.393Z,100.0
2018-06-20T06:18:58.508Z,100.0
2018-06-20T06:19:59.231Z,100.0
2018-06-20T06:20:59.952Z,100.0
2018-06-20T06:22:00.691Z,100.0
2018-06-20T06:23:01.479Z,100.0
2018-06-20T06:24:02.209Z,100.0
2018-06-20T06:25:02.943Z,100.0
2018-06-20T06:26:03.689Z,100.0
2018-06-20T06:27:04.429Z,100.0
2018-06-20T06:28:05.163Z,100.0
2018-06-20T06:29:05.885Z,100.0
2018-06-20T06:30:06.622Z,100.0
2018-06-20T06:31:07.883Z,100.0
2018-06-20T06:32:08.844Z,100.0
2018-06-20T06:33:09.821Z,100.0
2018-06-20T06:34:10.549Z,100.0
2018-06-20T06:35:11.287Z,100.0
2018-06-20T06:36:12.016Z,100.0
2018-06-20T06:37:12.999Z,100.0
2018-06-20T06:38:13.736Z,99.4
2018-06-20T06:39:14.512Z,99.3
2018-06-20T06:40:15.254Z,99.9
2018-06-20T06:41:15.982Z,98.8
2018-06-20T06:42:16.724Z,99.0
2018-06-20T06:43:17.721Z,98.2
2018-06-20T06:44:18.450Z,98.7
2018-06-20T06:45:19.187Z,98.9
2018-06-20T06:46:19.909Z,97.7
2018-06-20T06:47:20.814Z,97.9
2018-06-20T06:48:21.551Z,97.8
2018-06-20T06:49:22.295Z,97.7
2018-06-20T06:50:23.019Z,98.3
2018-06-20T06:51:24.000Z,97.9
2018-06-20T06:52:24.731Z,96.5
2018-06-20T06:53:25.724Z,96.9
2018-06-20T06:54:26.458Z,96.7
2018-06-20T06:55:27.188Z,97.0
2018-06-20T06:56:27.939Z,96.6
2018-06-20T06:57:28.810Z,95.5
2018-06-20T06:58:29.540Z,96.2
2018-06-20T06:59:30.281Z,95.9
2018-06-20T07:00:31.013Z,96.7
2018-06-20T07:01:31.755Z,96.5
2018-06-20T07:02:32.522Z,96.9
2018-06-20T07:03:33.221Z,95.1
2018-06-20T07:04:33.954Z,95.3
2018-06-20T07:05:34.660Z,94.8
2018-06-20T07:06:35.406Z,94.9
2018-06-20T07:07:36.135Z,95.1
2018-06-20T07:08:36.917Z,95.5
2018-06-20T07:09:37.654Z,95.4
2018-06-20T07:10:38.386Z,94.2
2018-06-20T07:11:39.119Z,94.9
2018-06-20T07:12:39.863Z,93.8
2018-06-20T07:13:40.589Z,92.8
2018-06-20T07:14:41.325Z,92.8
2018-06-20T07:15:42.068Z,93.6
2018-06-20T07:16:42.806Z,93.8
2018-06-20T07:17:43.536Z,92.2
2018-06-20T07:18:44.331Z,93.2
2018-06-20T07:19:45.060Z,92.7
2018-06-20T07:20:45.788Z,92.8
2018-06-20T07:21:46.522Z,92.3
2018-06-20T07:22:47.259Z,92.7
2018-06-20T07:23:47.983Z,92.7
2018-06-20T07:24:48.706Z,91.4
2018-06-20T07:25:49.449Z,92.0
2018-06-20T07:26:50.179Z,92.4
2018-06-20T07:27:50.904Z,93.1
2018-06-20T07:28:51.640Z,93.6
2018-06-20T07:29:52.452Z,93.1
2018-06-20T07:30:53.162Z,92.7
2018-06-20T07:31:53.899Z,93.6
2018-06-20T07:32:54.623Z,94.3
2018-06-20T07:33:55.369Z,93.9
2018-06-20T07:34:56.112Z,94.0
2018-06-20T07:35:56.894Z,92.6
2018-06-20T07:36:57.574Z,92.3
2018-06-20T07:37:58.301Z,92.4
2018-06-20T07:38:59.039Z,92.1
2018-06-20T07:39:59.762Z,91.3
2018-06-20T07:41:00.506Z,91.4
2018-06-20T07:42:01.291Z,92.2
2018-06-20T07:43:02.028Z,92.4
2018-06-20T07:44:03.006Z,91.9
2018-06-20T07:45:03.798Z,91.9
2018-06-20T07:46:04.492Z,92.9
2018-06-20T07:47:05.225Z,92.6
2018-06-20T07:48:05.963Z,92.2
2018-06-20T07:49:06.694Z,92.5
2018-06-20T07:50:07.525Z,91.8
2018-06-20T07:51:08.267Z,90.3
2018-06-20T07:52:08.995Z,89.9
2018-06-20T07:53:09.735Z,89.6
2018-06-20T07:54:10.485Z,89.3
2018-06-20T07:55:11.207Z,89.6
2018-06-20T07:56:11.944Z,90.1
2018-06-20T07:57:12.678Z,89.6
2018-06-20T07:58:13.426Z,90.5
2018-06-20T07:59:14.158Z,89.6
2018-06-20T08:00:14.939Z,88.9
2018-06-20T08:01:15.681Z,88.5
2018-06-20T08:02:16.412Z,88.3
2018-06-20T08:03:17.139Z,88.3
2018-06-20T08:04:17.871Z,87.7
2018-06-20T08:05:18.765Z,87.0
2018-06-20T08:06:19.493Z,87.5
2018-06-20T08:07:20.222Z,87.4
2018-06-20T08:08:20.956Z,88.3
2018-06-20T08:09:21.685Z,88.3
2018-06-20T08:10:22.461Z,86.3
2018-06-20T08:11:23.195Z,86.9
2018-06-20T08:12:23.985Z,87.0
2018-06-20T08:13:24.668Z,85.9
2018-06-20T08:14:25.413Z,85.3
2018-06-20T08:15:26.418Z,85.6
2018-06-20T08:16:27.398Z,84.8
2018-06-20T08:17:28.124Z,85.2
2018-06-20T08:18:28.864Z,86.0
2018-06-20T08:19:29.600Z,85.1
2018-06-20T08:20:30.343Z,83.8
2018-06-20T08:21:31.071Z,83.3
2018-06-20T08:22:31.809Z,83.6
2018-06-20T08:23:32.595Z,83.8
2018-06-20T08:24:33.334Z,83.9
2018-06-20T08:25:34.079Z,84.8
2018-06-20T08:26:34.827Z,82.3
2018-06-20T08:27:35.553Z,83.2
2018-06-20T08:28:36.340Z,84.7
2018-06-20T08:29:37.064Z,83.6
2018-06-20T08:30:37.804Z,82.4
2018-06-20T08:31:38.789Z,82.3
2018-06-20T08:32:39.523Z,82.6
2018-06-20T08:33:40.307Z,82.7
2018-06-20T08:34:41.055Z,83.1
2018-06-20T08:35:41.784Z,83.6
2018-06-20T08:36:42.524Z,83.7
2018-06-20T08:37:43.267Z,83.6
2018-06-20T08:38:44.108Z,81.9
2018-06-20T08:39:44.849Z,82.0
2018-06-20T08:40:45.586Z,81.6
2018-06-20T08:41:46.329Z,81.3
2018-06-20T08:42:47.063Z,82.2
2018-06-20T08:43:47.797Z,82.1
2018-06-20T08:44:48.531Z,81.4
2018-06-20T08:45:49.562Z,81.8
2018-06-20T08:46:50.549Z,82.6
2018-06-20T08:47:51.531Z,82.2
2018-06-20T08:48:52.263Z,80.2
2018-06-20T08:49:52.997Z,80.5
2018-06-20T08:50:53.731Z,80.9
2018-06-20T08:51:54.710Z,80.9
2018-06-20T08:52:55.445Z,80.6
2018-06-20T08:53:56.171Z,80.5
2018-06-20T08:54:56.899Z,80.3
2018-06-20T08:55:57.638Z,80.5
2018-06-20T08:56:58.379Z,80.7
2018-06-20T08:57:59.108Z,80.5
2018-06-20T08:58:59.860Z,80.3
2018-06-20T09:00:00.591Z,80.8
2018-06-20T09:01:01.577Z,79.5
2018-06-20T09:02:02.365Z,79.5
2018-06-20T09:03:03.035Z,79.8
2018-06-20T09:04:03.783Z,79.2
2018-06-20T09:05:04.506Z,78.2
2018-06-20T09:06:05.246Z,77.4
2018-06-20T09:07:05.977Z,77.2
2018-06-20T09:08:06.714Z,78.1
2018-06-20T09:09:07.452Z,77.5
2018-06-20T09:10:08.186Z,78.5
2018-06-20T09:11:09.169Z,77.6
2018-06-20T09:12:09.898Z,76.9
2018-06-20T09:13:10.631Z,77.1
2018-06-20T09:14:11.626Z,77.2
2018-06-20T09:15:12.362Z,76.5
2018-06-20T09:16:13.351Z,77.8
2018-06-20T09:17:14.082Z,78.2
2018-06-20T09:18:14.828Z,78.1
2018-06-20T09:19:15.555Z,78.1
2018-06-20T09:20:16.292Z,77.9
2018-06-20T09:21:17.028Z,77.8
2018-06-20T09:22:17.762Z,77.5
2018-06-20T09:23:18.748Z,77.5
2018-06-20T09:24:19.477Z,77.5
2018-06-20T09:25:20.213Z,77.4
2018-06-20T09:26:20.949Z,77.8
2018-06-20T09:27:21.681Z,76.7
2018-06-20T09:28:22.420Z,77.2
2018-06-20T09:29:23.155Z,77.4
2018-06-20T09:30:23.881Z,76.9
2018-06-20T09:31:24.613Z,74.7
2018-06-20T09:32:25.348Z,76.9
2018-06-20T09:33:26.097Z,76.5
2018-06-20T09:34:26.886Z,75.8
2018-06-20T09:35:27.627Z,74.9
2018-06-20T09:36:28.369Z,73.0
2018-06-20T09:37:29.103Z,73.8
2018-06-20T09:38:30.093Z,75.0
2018-06-20T09:39:30.874Z,74.9
2018-06-20T09:40:31.605Z,76.1
2018-06-20T09:41:32.352Z,76.4
2018-06-20T09:42:33.085Z,76.0
2018-06-20T09:43:33.816Z,74.5
2018-06-20T09:44:34.714Z,74.8
2018-06-20T09:45:35.404Z,75.5
2018-06-20T09:46:36.139Z,74.6
2018-06-20T09:47:36.875Z,73.5
2018-06-20T09:48:37.613Z,74.5
2018-06-20T09:49:38.368Z,75.1
2018-06-20T09:50:39.097Z,74.8
2018-06-20T09:51:39.828Z,74.8
2018-06-20T09:52:40.562Z,74.4
2018-06-20T09:53:41.307Z,74.8
2018-06-20T09:54:42.045Z,73.2
2018-06-20T09:55:42.785Z,74.7
2018-06-20T09:56:43.515Z,74.8
2018-06-20T09:57:44.268Z,74.4
2018-06-20T09:58:45.005Z,74.6
2018-06-20T09:59:45.786Z,74.7
2018-06-20T10:00:46.522Z,73.6
2018-06-20T10:01:47.258Z,74.3
2018-06-20T10:02:47.986Z,75.1
2018-06-20T10:03:48.970Z,73.5
2018-06-20T10:04:49.726Z,76.2
2018-06-20T10:05:50.456Z,75.9
2018-06-20T10:06:51.216Z,76.2
2018-06-20T10:07:51.931Z,76.1
2018-06-20T10:08:52.668Z,73.5
2018-06-20T10:09:53.397Z,74.6
2018-06-20T10:10:54.127Z,75.0
2018-06-20T10:11:54.866Z,74.8
2018-06-20T10:12:55.594Z,74.5
2018-06-20T10:13:56.326Z,74.7
2018-06-20T10:14:57.060Z,74.6
2018-06-20T10:15:58.041Z,73.5
2018-06-20T10:16:58.776Z,72.8
2018-06-20T10:17:59.514Z,71.6
2018-06-20T10:19:00.261Z,71.6
2018-06-20T10:20:01.005Z,71.0
2018-06-20T10:21:01.823Z,71.9
2018-06-20T10:22:02.475Z,72.0
2018-06-20T10:23:03.211Z,73.0
2018-06-20T10:24:03.949Z,73.9
2018-06-20T10:25:04.689Z,73.7
2018-06-20T10:26:05.421Z,74.4
2018-06-20T10:27:06.165Z,74.0
2018-06-20T10:28:06.947Z,73.4
2018-06-20T10:29:07.676Z,73.5
2018-06-20T10:30:08.413Z,73.5
2018-06-20T10:31:09.139Z,73.4
2018-06-20T10:32:09.885Z,74.0
2018-06-20T10:33:10.714Z,73.5
2018-06-20T10:34:11.448Z,74.4
2018-06-20T10:35:12.183Z,73.5
2018-06-20T10:36:12.913Z,73.6
2018-06-20T10:37:13.651Z,73.4
2018-06-20T10:38:14.392Z,73.8
2018-06-20T10:39:15.128Z,71.7
2018-06-20T10:40:15.888Z,70.3
2018-06-20T10:41:16.613Z,68.8
2018-06-20T10:42:17.356Z,68.8
2018-06-20T10:43:18.137Z,66.6
2018-06-20T10:44:18.887Z,67.2
2018-06-20T10:45:19.617Z,67.1
2018-06-20T10:46:20.531Z,66.7
2018-06-20T10:47:21.105Z,65.2
2018-06-20T10:48:21.937Z,65.8
2018-06-20T10:49:22.728Z,68.2
2018-06-20T10:50:23.429Z,66.0
2018-06-20T10:51:24.175Z,65.9
2018-06-20T10:52:24.896Z,67.1
2018-06-20T10:53:25.876Z,65.9
2018-06-20T10:54:26.645Z,65.5
2018-06-20T10:55:27.371Z,65.1
2018-06-20T10:56:28.107Z,65.0
2018-06-20T10:57:28.840Z,68.0
2018-06-20T10:58:29.580Z,70.7
2018-06-20T10:59:30.315Z,68.8
2018-06-20T11:00:31.046Z,68.3
2018-06-20T11:01:31.779Z,66.3
2018-06-20T11:02:32.520Z,65.9
2018-06-20T11:03:33.255Z,65.3
2018-06-20T11:04:33.992Z,65.9
2018-06-20T11:05:34.737Z,63.3
2018-06-20T11:06:35.460Z,64.4
2018-06-20T11:07:36.195Z,62.6
2018-06-20T11:08:36.933Z,62.6
2018-06-20T11:09:37.659Z,60.6
2018-06-20T11:10:38.384Z,61.6
2018-06-20T11:11:39.112Z,60.8
2018-06-20T11:12:39.870Z,60.9
2018-06-20T11:13:40.607Z,60.2
2018-06-20T11:14:41.357Z,60.3
2018-06-20T11:15:42.088Z,60.6
2018-06-20T11:16:42.925Z,57.2
2018-06-20T11:17:43.661Z,59.2
2018-06-20T11:18:44.406Z,60.1
2018-06-20T11:19:45.139Z,60.0
2018-06-20T11:20:45.887Z,60.9
2018-06-20T11:21:46.625Z,58.3
2018-06-20T11:22:47.610Z,58.2
2018-06-20T11:23:48.343Z,59.2
2018-06-20T11:24:49.077Z,58.3
2018-06-20T11:25:49.820Z,57.1
2018-06-20T11:26:50.602Z,55.6
2018-06-20T11:27:51.348Z,55.8
2018-06-20T11:28:52.079Z,55.9
2018-06-20T11:29:52.814Z,56.7
2018-06-20T11:30:53.548Z,54.8
2018-06-20T11:31:54.632Z,54.3
2018-06-20T11:32:55.385Z,56.6
2018-06-20T11:33:56.120Z,57.2
2018-06-20T11:34:56.866Z,58.6
2018-06-20T11:35:57.601Z,57.1
2018-06-20T11:36:58.330Z,58.2
2018-06-20T11:37:59.126Z,56.1
2018-06-20T11:38:59.868Z,59.5
2018-06-20T11:40:00.614Z,58.9
2018-06-20T11:41:01.360Z,59.2
2018-06-20T11:42:02.087Z,61.5
2018-06-20T11:43:02.816Z,62.3
2018-06-20T11:44:03.557Z,60.2
2018-06-20T11:45:04.554Z,60.7
2018-06-20T11:46:05.296Z,60.3
2018-06-20T11:47:06.036Z,59.0
2018-06-20T11:48:06.773Z,60.1
2018-06-20T11:49:07.560Z,60.1
2018-06-20T11:50:08.547Z,60.7
2018-06-20T11:51:09.524Z,58.4
2018-06-20T11:52:10.507Z,58.6
2018-06-20T11:53:11.263Z,58.0
2018-06-20T11:54:12.049Z,57.8
2018-06-20T11:55:12.793Z,59.2
2018-06-20T11:56:13.553Z,58.1
2018-06-20T11:57:14.299Z,56.8
2018-06-20T11:58:15.052Z,56.3
2018-06-20T11:59:15.801Z,56.5
2018-06-20T12:00:16.524Z,59.1
2018-06-20T12:01:17.269Z,59.7
2018-06-20T12:02:18.009Z,58.6
2018-06-20T12:03:18.763Z,58.5
2018-06-20T12:04:19.493Z,57.8
2018-06-20T12:05:20.241Z,58.1
2018-06-20T12:06:20.993Z,59.7
2018-06-20T12:07:21.746Z,62.2
2018-06-20T12:08:22.481Z,59.8
2018-06-20T12:09:23.227Z,59.7
2018-06-20T12:10:23.988Z,57.5
2018-06-20T12:11:24.717Z,54.7
2018-06-20T12:12:25.456Z,56.2
2018-06-20T12:13:26.200Z,57.0
2018-06-20T12:14:26.989Z,58.2
2018-06-20T12:15:27.729Z,59.0
2018-06-20T12:16:28.473Z,58.6
2018-06-20T12:17:29.223Z,57.4
2018-06-20T12:18:29.961Z,56.4
2018-06-20T12:19:30.694Z,55.1
2018-06-20T12:20:31.429Z,52.9
2018-06-20T12:21:32.172Z,54.4
2018-06-20T12:22:32.908Z,55.4
2018-06-20T12:23:33.657Z,55.5
2018-06-20T12:24:34.392Z,56.2
2018-06-20T12:25:35.136Z,57.0
2018-06-20T12:26:35.864Z,57.1
2018-06-20T12:27:36.606Z,57.2
2018-06-20T12:28:37.353Z,56.4
2018-06-20T12:29:38.094Z,55.2
2018-06-20T12:30:38.833Z,55.1
2018-06-20T12:31:39.570Z,53.6
2018-06-20T12:32:40.309Z,53.5
2018-06-20T12:33:41.043Z,52.6
2018-06-20T12:34:41.791Z,56.0
2018-06-20T12:35:42.780Z,57.1
2018-06-20T12:36:43.604Z,56.4
2018-06-20T12:37:44.254Z,53.6
2018-06-20T12:38:44.986Z,53.9
2018-06-20T12:39:45.747Z,55.0
2018-06-20T12:40:46.529Z,54.5
2018-06-20T12:41:47.243Z,55.1
2018-06-20T12:42:47.988Z,53.7
2018-06-20T12:43:48.738Z,55.0
2018-06-20T12:44:49.486Z,53.7
2018-06-20T12:45:50.222Z,53.9
2018-06-20T12:46:50.981Z,55.0
2018-06-20T12:47:51.701Z,52.1
2018-06-20T12:48:52.432Z,53.9
2018-06-20T12:49:53.183Z,53.1
2018-06-20T12:50:54.006Z,53.3
2018-06-20T12:51:55.005Z,52.5
2018-06-20T12:52:55.732Z,52.2
2018-06-20T12:53:56.479Z,52.6
2018-06-20T12:54:57.200Z,52.1
2018-06-20T12:55:58.041Z,52.2
2018-06-20T12:56:58.789Z,51.4
2018-06-20T12:57:59.539Z,49.6
2018-06-20T12:59:00.281Z,49.4
2018-06-20T13:00:01.014Z,48.6
2018-06-20T13:01:01.995Z,47.7
2018-06-20T13:02:02.743Z,47.5
2018-06-20T13:03:03.477Z,47.6
2018-06-20T13:04:04.274Z,46.0
2018-06-20T13:05:04.959Z,47.0
2018-06-20T13:06:05.698Z,48.9
2018-06-20T13:07:06.473Z,49.2
2018-06-20T13:08:07.479Z,49.1
2018-06-20T13:09:08.211Z,48.9
2018-06-20T13:10:08.941Z,49.7
2018-06-20T13:11:09.688Z,49.2
2018-06-20T13:12:10.427Z,49.4
2018-06-20T13:13:11.164Z,49.9
2018-06-20T13:14:11.912Z,52.4
2018-06-20T13:15:12.649Z,51.5
2018-06-20T13:16:13.388Z,50.9
2018-06-20T13:17:14.125Z,50.9
2018-06-20T13:18:14.861Z,50.8
2018-06-20T13:19:15.596Z,50.9
2018-06-20T13:20:16.367Z,52.0
2018-06-20T13:21:17.081Z,51.3